sensor_id;sensor_type;location;lat;lon;timestamp;P1;durP1;ratioP1;P2;durP2;ratioP2
26686;SDS011;14298;50.900;4.648;2023-08-17T00:00:40;0.83;;;0.83;;
26686;SDS011;14298;50.900;4.648;2023-08-17T00:03:08;0.80;;;0.80;;
26686;SDS011;14298;50.900;4.648;2023-08-17T00:05:36;4.23;;;1.20;;
26686;SDS011;14298;50.900;4.648;2023-08-17T00:08:05;1.10;;;1.00;;
26686;SDS011;14298;50.900;4.648;2023-08-17T00:10:33;0.80;;;0.80;;
26686;SDS011;14298;50.900;4.648;2023-08-17T00:13:01;2.20;;;1.10;;
26686;SDS011;14298;50.900;4.648;2023-08-17T00:15:31;1.20;;;1.03;;
26686;SDS011;14298;50.900;4.648;2023-08-17T00:17:59;0.80;;;0.80;;
26686;SDS011;14298;50.900;4.648;2023-08-17T00:20:27;1.97;;;1.20;;
26686;SDS011;14298;50.900;4.648;2023-08-17T00:22:55;1.20;;;1.10;;
26686;SDS011;14298;50.900;4.648;2023-08-17T00:25:23;0.97;;;0.77;;
26686;SDS011;14298;50.900;4.648;2023-08-17T00:27:51;0.40;;;0.40;;
26686;SDS011;14298;50.900;4.648;2023-08-17T00:30:19;3.70;;;1.37;;
26686;SDS011;14298;50.900;4.648;2023-08-17T00:32:47;2.00;;;0.90;;
26686;SDS011;14298;50.900;4.648;2023-08-17T00:35:15;1.13;;;1.03;;
26686;SDS011;14298;50.900;4.648;2023-08-17T00:37:43;0.80;;;0.80;;
26686;SDS011;14298;50.900;4.648;2023-08-17T00:40:11;0.90;;;0.80;;
26686;SDS011;14298;50.900;4.648;2023-08-17T00:42:39;4.83;;;1.13;;
26686;SDS011;14298;50.900;4.648;2023-08-17T00:45:08;0.93;;;0.93;;
26686;SDS011;14298;50.900;4.648;2023-08-17T00:47:36;1.03;;;0.80;;
26686;SDS011;14298;50.900;4.648;2023-08-17T00:50:04;0.53;;;0.53;;
26686;SDS011;14298;50.900;4.648;2023-08-17T00:52:33;1.03;;;0.80;;
26686;SDS011;14298;50.900;4.648;2023-08-17T00:55:02;0.57;;;0.57;;
26686;SDS011;14298;50.900;4.648;2023-08-17T00:57:31;4.73;;;0.70;;
26686;SDS011;14298;50.900;4.648;2023-08-17T00:59:59;0.80;;;0.80;;
26686;SDS011;14298;50.900;4.648;2023-08-17T01:02:27;0.90;;;0.80;;
26686;SDS011;14298;50.900;4.648;2023-08-17T01:04:56;1.03;;;0.97;;
26686;SDS011;14298;50.900;4.648;2023-08-17T01:07:24;0.70;;;0.70;;
26686;SDS011;14298;50.900;4.648;2023-08-17T01:09:52;1.50;;;1.03;;
26686;SDS011;14298;50.900;4.648;2023-08-17T01:12:35;0.93;;;0.83;;
26686;SDS011;14298;50.900;4.648;2023-08-17T01:15:09;1.07;;;1.07;;
26686;SDS011;14298;50.900;4.648;2023-08-17T01:17:52;1.87;;;1.07;;
26686;SDS011;14298;50.900;4.648;2023-08-17T01:20:07;0.87;;;0.87;;
26686;SDS011;14298;50.900;4.648;2023-08-17T01:22:38;0.90;;;0.73;;
26686;SDS011;14298;50.900;4.648;2023-08-17T01:25:07;1.03;;;1.00;;
26686;SDS011;14298;50.900;4.648;2023-08-17T01:27:44;1.63;;;1.00;;
26686;SDS011;14298;50.900;4.648;2023-08-17T01:30:11;1.03;;;0.80;;
26686;SDS011;14298;50.900;4.648;2023-08-17T01:37:46;0.80;;;0.73;;
26686;SDS011;14298;50.900;4.648;2023-08-17T01:40:14;0.90;;;0.87;;
26686;SDS011;14298;50.900;4.648;2023-08-17T01:42:42;1.27;;;1.17;;
26686;SDS011;14298;50.900;4.648;2023-08-17T01:45:10;1.20;;;1.00;;
26686;SDS011;14298;50.900;4.648;2023-08-17T01:47:39;2.07;;;1.20;;
26686;SDS011;14298;50.900;4.648;2023-08-17T01:50:07;1.00;;;1.00;;
26686;SDS011;14298;50.900;4.648;2023-08-17T01:52:35;1.57;;;1.47;;
26686;SDS011;14298;50.900;4.648;2023-08-17T01:55:03;1.13;;;1.03;;
26686;SDS011;14298;50.900;4.648;2023-08-17T01:57:31;1.60;;;1.27;;
26686;SDS011;14298;50.900;4.648;2023-08-17T02:00:00;0.83;;;0.83;;
26686;SDS011;14298;50.900;4.648;2023-08-17T02:02:28;1.50;;;1.13;;
26686;SDS011;14298;50.900;4.648;2023-08-17T02:04:56;0.87;;;0.87;;
26686;SDS011;14298;50.900;4.648;2023-08-17T02:07:23;1.30;;;1.20;;
26686;SDS011;14298;50.900;4.648;2023-08-17T02:09:51;1.10;;;1.00;;
26686;SDS011;14298;50.900;4.648;2023-08-17T02:12:19;1.27;;;1.03;;
26686;SDS011;14298;50.900;4.648;2023-08-17T02:14:47;1.50;;;1.00;;
26686;SDS011;14298;50.900;4.648;2023-08-17T02:17:15;0.70;;;0.70;;
26686;SDS011;14298;50.900;4.648;2023-08-17T02:19:45;0.87;;;0.87;;
26686;SDS011;14298;50.900;4.648;2023-08-17T02:22:14;1.40;;;1.30;;
26686;SDS011;14298;50.900;4.648;2023-08-17T02:24:43;1.17;;;1.10;;
26686;SDS011;14298;50.900;4.648;2023-08-17T02:27:11;1.00;;;0.90;;
26686;SDS011;14298;50.900;4.648;2023-08-17T02:29:39;3.70;;;1.40;;
26686;SDS011;14298;50.900;4.648;2023-08-17T02:32:07;0.90;;;0.90;;
26686;SDS011;14298;50.900;4.648;2023-08-17T02:34:35;1.50;;;1.40;;
26686;SDS011;14298;50.900;4.648;2023-08-17T02:37:03;1.27;;;1.13;;
26686;SDS011;14298;50.900;4.648;2023-08-17T02:39:31;3.47;;;1.23;;
26686;SDS011;14298;50.900;4.648;2023-08-17T02:41:59;1.07;;;1.07;;
26686;SDS011;14298;50.900;4.648;2023-08-17T02:44:27;1.90;;;1.70;;
26686;SDS011;14298;50.900;4.648;2023-08-17T02:46:55;0.90;;;0.80;;
26686;SDS011;14298;50.900;4.648;2023-08-17T02:49:23;3.10;;;1.50;;
26686;SDS011;14298;50.900;4.648;2023-08-17T02:51:51;2.00;;;1.20;;
26686;SDS011;14298;50.900;4.648;2023-08-17T02:54:19;1.40;;;1.20;;
26686;SDS011;14298;50.900;4.648;2023-08-17T02:56:47;1.10;;;1.07;;
26686;SDS011;14298;50.900;4.648;2023-08-17T02:59:15;4.10;;;1.43;;
26686;SDS011;14298;50.900;4.648;2023-08-17T03:01:44;2.20;;;1.37;;
26686;SDS011;14298;50.900;4.648;2023-08-17T03:04:12;1.20;;;1.17;;
26686;SDS011;14298;50.900;4.648;2023-08-17T03:06:39;1.90;;;1.00;;
26686;SDS011;14298;50.900;4.648;2023-08-17T03:09:07;1.20;;;1.13;;
26686;SDS011;14298;50.900;4.648;2023-08-17T03:11:36;1.87;;;1.57;;
26686;SDS011;14298;50.900;4.648;2023-08-17T03:14:04;1.13;;;1.03;;
26686;SDS011;14298;50.900;4.648;2023-08-17T03:16:32;1.00;;;1.00;;
26686;SDS011;14298;50.900;4.648;2023-08-17T03:19:00;1.57;;;1.47;;
26686;SDS011;14298;50.900;4.648;2023-08-17T03:21:28;1.30;;;1.20;;
26686;SDS011;14298;50.900;4.648;2023-08-17T03:23:56;1.50;;;1.40;;
26686;SDS011;14298;50.900;4.648;2023-08-17T03:26:24;1.03;;;1.00;;
26686;SDS011;14298;50.900;4.648;2023-08-17T03:28:52;2.10;;;1.53;;
26686;SDS011;14298;50.900;4.648;2023-08-17T03:31:21;1.33;;;1.10;;
26686;SDS011;14298;50.900;4.648;2023-08-17T03:33:49;1.30;;;1.20;;
26686;SDS011;14298;50.900;4.648;2023-08-17T03:36:17;2.80;;;1.37;;
26686;SDS011;14298;50.900;4.648;2023-08-17T03:38:45;1.30;;;1.20;;
26686;SDS011;14298;50.900;4.648;2023-08-17T03:41:13;2.40;;;1.47;;
26686;SDS011;14298;50.900;4.648;2023-08-17T03:43:41;2.00;;;1.13;;
26686;SDS011;14298;50.900;4.648;2023-08-17T03:46:09;1.30;;;1.20;;
26686;SDS011;14298;50.900;4.648;2023-08-17T03:48:37;2.60;;;1.40;;
26686;SDS011;14298;50.900;4.648;2023-08-17T03:51:05;3.40;;;1.47;;
26686;SDS011;14298;50.900;4.648;2023-08-17T03:53:33;2.77;;;1.70;;
26686;SDS011;14298;50.900;4.648;2023-08-17T03:56:01;1.70;;;1.60;;
26686;SDS011;14298;50.900;4.648;2023-08-17T03:58:29;1.33;;;1.23;;
26686;SDS011;14298;50.900;4.648;2023-08-17T04:00:58;1.23;;;1.13;;
26686;SDS011;14298;50.900;4.648;2023-08-17T04:03:26;1.73;;;1.63;;
26686;SDS011;14298;50.900;4.648;2023-08-17T04:05:54;1.10;;;0.93;;
26686;SDS011;14298;50.900;4.648;2023-08-17T04:08:22;1.07;;;1.07;;
26686;SDS011;14298;50.900;4.648;2023-08-17T04:10:50;4.17;;;1.80;;
26686;SDS011;14298;50.900;4.648;2023-08-17T04:13:18;2.83;;;1.10;;
26686;SDS011;14298;50.900;4.648;2023-08-17T04:15:46;3.27;;;1.50;;
26686;SDS011;14298;50.900;4.648;2023-08-17T04:18:14;3.03;;;1.53;;
26686;SDS011;14298;50.900;4.648;2023-08-17T04:20:42;3.17;;;1.30;;
26686;SDS011;14298;50.900;4.648;2023-08-17T04:23:10;2.00;;;1.00;;
26686;SDS011;14298;50.900;4.648;2023-08-17T04:25:38;1.57;;;1.47;;
26686;SDS011;14298;50.900;4.648;2023-08-17T04:28:06;2.07;;;1.50;;
26686;SDS011;14298;50.900;4.648;2023-08-17T04:30:34;1.63;;;1.33;;
26686;SDS011;14298;50.900;4.648;2023-08-17T04:33:02;3.47;;;1.40;;
26686;SDS011;14298;50.900;4.648;2023-08-17T04:35:30;1.20;;;1.10;;
26686;SDS011;14298;50.900;4.648;2023-08-17T04:37:58;2.93;;;1.40;;
26686;SDS011;14298;50.900;4.648;2023-08-17T04:40:26;2.03;;;1.50;;
26686;SDS011;14298;50.900;4.648;2023-08-17T04:42:55;2.23;;;1.40;;
26686;SDS011;14298;50.900;4.648;2023-08-17T04:45:23;2.67;;;1.60;;
26686;SDS011;14298;50.900;4.648;2023-08-17T04:47:51;0.80;;;0.80;;
26686;SDS011;14298;50.900;4.648;2023-08-17T04:50:19;3.13;;;1.20;;
26686;SDS011;14298;50.900;4.648;2023-08-17T04:52:47;3.10;;;1.87;;
26686;SDS011;14298;50.900;4.648;2023-08-17T04:55:15;2.03;;;1.07;;
26686;SDS011;14298;50.900;4.648;2023-08-17T04:57:43;0.93;;;0.93;;
26686;SDS011;14298;50.900;4.648;2023-08-17T05:00:11;1.40;;;1.00;;
26686;SDS011;14298;50.900;4.648;2023-08-17T05:02:40;3.93;;;1.10;;
26686;SDS011;14298;50.900;4.648;2023-08-17T05:05:09;0.90;;;0.80;;
26686;SDS011;14298;50.900;4.648;2023-08-17T05:07:37;1.30;;;1.20;;
26686;SDS011;14298;50.900;4.648;2023-08-17T05:10:05;1.03;;;1.00;;
26686;SDS011;14298;50.900;4.648;2023-08-17T05:12:33;1.17;;;1.00;;
26686;SDS011;14298;50.900;4.648;2023-08-17T05:15:01;1.43;;;1.33;;
26686;SDS011;14298;50.900;4.648;2023-08-17T05:17:30;1.97;;;1.20;;
26686;SDS011;14298;50.900;4.648;2023-08-17T05:19:58;1.83;;;1.10;;
26686;SDS011;14298;50.900;4.648;2023-08-17T05:22:27;2.80;;;1.20;;
26686;SDS011;14298;50.900;4.648;2023-08-17T05:24:55;1.83;;;1.17;;
26686;SDS011;14298;50.900;4.648;2023-08-17T05:27:23;1.17;;;1.07;;
26686;SDS011;14298;50.900;4.648;2023-08-17T05:29:51;1.33;;;1.23;;
26686;SDS011;14298;50.900;4.648;2023-08-17T05:32:18;1.30;;;1.20;;
26686;SDS011;14298;50.900;4.648;2023-08-17T05:34:47;0.77;;;0.77;;
26686;SDS011;14298;50.900;4.648;2023-08-17T05:37:15;2.43;;;1.27;;
26686;SDS011;14298;50.900;4.648;2023-08-17T05:39:43;0.90;;;0.90;;
26686;SDS011;14298;50.900;4.648;2023-08-17T05:42:11;0.57;;;0.57;;
26686;SDS011;14298;50.900;4.648;2023-08-17T05:44:39;1.90;;;1.17;;
26686;SDS011;14298;50.900;4.648;2023-08-17T05:47:07;1.57;;;1.47;;
26686;SDS011;14298;50.900;4.648;2023-08-17T05:49:35;1.30;;;1.17;;
26686;SDS011;14298;50.900;4.648;2023-08-17T05:52:07;1.10;;;1.10;;
26686;SDS011;14298;50.900;4.648;2023-08-17T05:54:34;2.10;;;1.50;;
26686;SDS011;14298;50.900;4.648;2023-08-17T05:57:02;4.13;;;1.43;;
26686;SDS011;14298;50.900;4.648;2023-08-17T05:59:31;0.93;;;0.93;;
26686;SDS011;14298;50.900;4.648;2023-08-17T06:01:59;1.83;;;1.57;;
26686;SDS011;14298;50.900;4.648;2023-08-17T06:04:27;7.53;;;1.70;;
26686;SDS011;14298;50.900;4.648;2023-08-17T06:09:42;1.90;;;1.37;;
26686;SDS011;14298;50.900;4.648;2023-08-17T06:12:10;1.00;;;0.90;;
26686;SDS011;14298;50.900;4.648;2023-08-17T06:14:38;1.13;;;0.97;;
26686;SDS011;14298;50.900;4.648;2023-08-17T06:17:06;2.50;;;1.50;;
26686;SDS011;14298;50.900;4.648;2023-08-17T06:19:34;1.90;;;1.30;;
26686;SDS011;14298;50.900;4.648;2023-08-17T06:22:02;2.60;;;1.20;;
26686;SDS011;14298;50.900;4.648;2023-08-17T06:24:30;1.53;;;1.43;;
26686;SDS011;14298;50.900;4.648;2023-08-17T06:26:58;1.37;;;1.17;;
26686;SDS011;14298;50.900;4.648;2023-08-17T06:29:26;0.87;;;0.87;;
26686;SDS011;14298;50.900;4.648;2023-08-17T06:31:54;1.60;;;1.50;;
26686;SDS011;14298;50.900;4.648;2023-08-17T06:34:22;2.40;;;1.30;;
26686;SDS011;14298;50.900;4.648;2023-08-17T06:37:02;1.30;;;1.07;;
26686;SDS011;14298;50.900;4.648;2023-08-17T06:39:20;1.33;;;1.10;;
26686;SDS011;14298;50.900;4.648;2023-08-17T06:41:48;3.20;;;1.27;;
26686;SDS011;14298;50.900;4.648;2023-08-17T06:44:15;4.07;;;1.67;;
26686;SDS011;14298;50.900;4.648;2023-08-17T06:46:43;2.97;;;1.90;;
26686;SDS011;14298;50.900;4.648;2023-08-17T06:49:11;0.80;;;0.80;;
26686;SDS011;14298;50.900;4.648;2023-08-17T06:51:40;1.23;;;1.20;;
26686;SDS011;14298;50.900;4.648;2023-08-17T06:54:08;2.73;;;1.50;;
26686;SDS011;14298;50.900;4.648;2023-08-17T06:56:37;2.43;;;1.57;;
26686;SDS011;14298;50.900;4.648;2023-08-17T06:59:05;1.80;;;1.70;;
26686;SDS011;14298;50.900;4.648;2023-08-17T07:01:34;2.53;;;1.70;;
26686;SDS011;14298;50.900;4.648;2023-08-17T07:04:02;2.43;;;2.23;;
26686;SDS011;14298;50.900;4.648;2023-08-17T07:06:30;2.87;;;2.17;;
26686;SDS011;14298;50.900;4.648;2023-08-17T07:08:58;2.40;;;1.77;;
26686;SDS011;14298;50.900;4.648;2023-08-17T07:11:26;3.67;;;2.00;;
26686;SDS011;14298;50.900;4.648;2023-08-17T07:13:54;1.60;;;1.50;;
26686;SDS011;14298;50.900;4.648;2023-08-17T07:16:22;3.33;;;1.93;;
26686;SDS011;14298;50.900;4.648;2023-08-17T07:18:50;1.70;;;1.60;;
26686;SDS011;14298;50.900;4.648;2023-08-17T07:21:18;7.50;;;2.07;;
26686;SDS011;14298;50.900;4.648;2023-08-17T07:23:46;3.37;;;3.03;;
26686;SDS011;14298;50.900;4.648;2023-08-17T07:29:02;2.47;;;2.27;;
26686;SDS011;14298;50.900;4.648;2023-08-17T07:31:30;2.37;;;1.97;;
26686;SDS011;14298;50.900;4.648;2023-08-17T07:34:02;1.60;;;1.50;;
26686;SDS011;14298;50.900;4.648;2023-08-17T07:36:31;1.43;;;1.33;;
26686;SDS011;14298;50.900;4.648;2023-08-17T07:38:59;0.87;;;0.87;;
26686;SDS011;14298;50.900;4.648;2023-08-17T07:41:27;1.83;;;1.73;;
26686;SDS011;14298;50.900;4.648;2023-08-17T07:43:55;2.00;;;1.47;;
26686;SDS011;14298;50.900;4.648;2023-08-17T07:46:24;3.10;;;1.30;;
26686;SDS011;14298;50.900;4.648;2023-08-17T07:48:52;1.37;;;1.27;;
26686;SDS011;14298;50.900;4.648;2023-08-17T07:51:21;2.67;;;2.10;;
26686;SDS011;14298;50.900;4.648;2023-08-17T07:53:49;1.47;;;1.37;;
26686;SDS011;14298;50.900;4.648;2023-08-17T07:56:16;1.40;;;1.27;;
26686;SDS011;14298;50.900;4.648;2023-08-17T07:58:45;1.57;;;1.40;;
26686;SDS011;14298;50.900;4.648;2023-08-17T08:01:12;1.47;;;1.37;;
26686;SDS011;14298;50.900;4.648;2023-08-17T08:03:40;1.10;;;1.10;;
26686;SDS011;14298;50.900;4.648;2023-08-17T08:06:08;1.57;;;1.47;;
26686;SDS011;14298;50.900;4.648;2023-08-17T08:08:36;2.77;;;1.70;;
26686;SDS011;14298;50.900;4.648;2023-08-17T08:11:04;1.93;;;1.57;;
26686;SDS011;14298;50.900;4.648;2023-08-17T08:13:32;1.50;;;1.33;;
26686;SDS011;14298;50.900;4.648;2023-08-17T08:16:00;1.27;;;1.17;;
26686;SDS011;14298;50.900;4.648;2023-08-17T08:18:28;2.83;;;1.63;;
26686;SDS011;14298;50.900;4.648;2023-08-17T08:20:56;1.53;;;1.43;;
26686;SDS011;14298;50.900;4.648;2023-08-17T08:23:24;0.83;;;0.83;;
26686;SDS011;14298;50.900;4.648;2023-08-17T08:25:53;1.53;;;1.33;;
26686;SDS011;14298;50.900;4.648;2023-08-17T08:28:21;2.00;;;1.17;;
26686;SDS011;14298;50.900;4.648;2023-08-17T08:30:49;1.37;;;1.27;;
26686;SDS011;14298;50.900;4.648;2023-08-17T08:33:17;2.13;;;1.60;;
26686;SDS011;14298;50.900;4.648;2023-08-17T08:35:45;4.73;;;2.23;;
26686;SDS011;14298;50.900;4.648;2023-08-17T08:41:01;2.43;;;1.53;;
26686;SDS011;14298;50.900;4.648;2023-08-17T08:43:29;2.90;;;2.10;;
26686;SDS011;14298;50.900;4.648;2023-08-17T08:45:58;2.33;;;1.83;;
26686;SDS011;14298;50.900;4.648;2023-08-17T08:48:27;1.27;;;1.17;;
26686;SDS011;14298;50.900;4.648;2023-08-17T08:50:57;3.77;;;2.50;;
26686;SDS011;14298;50.900;4.648;2023-08-17T08:56:13;1.93;;;1.80;;
26686;SDS011;14298;50.900;4.648;2023-08-17T08:58:43;2.03;;;1.83;;
26686;SDS011;14298;50.900;4.648;2023-08-17T09:01:12;3.40;;;2.60;;
26686;SDS011;14298;50.900;4.648;2023-08-17T09:06:31;2.47;;;2.27;;
26686;SDS011;14298;50.900;4.648;2023-08-17T09:09:00;2.10;;;1.90;;
26686;SDS011;14298;50.900;4.648;2023-08-17T09:11:29;4.37;;;2.40;;
26686;SDS011;14298;50.900;4.648;2023-08-17T09:13:57;2.00;;;1.53;;
26686;SDS011;14298;50.900;4.648;2023-08-17T09:16:26;3.90;;;2.33;;
26686;SDS011;14298;50.900;4.648;2023-08-17T09:18:55;2.50;;;2.03;;
26686;SDS011;14298;50.900;4.648;2023-08-17T09:21:23;3.87;;;1.93;;
26686;SDS011;14298;50.900;4.648;2023-08-17T09:23:52;3.70;;;2.07;;
26686;SDS011;14298;50.900;4.648;2023-08-17T09:26:20;1.83;;;1.73;;
26686;SDS011;14298;50.900;4.648;2023-08-17T09:28:51;3.83;;;2.70;;
26686;SDS011;14298;50.900;4.648;2023-08-17T09:31:21;1.63;;;1.40;;
26686;SDS011;14298;50.900;4.648;2023-08-17T09:33:52;2.40;;;1.70;;
26686;SDS011;14298;50.900;4.648;2023-08-17T09:36:21;5.03;;;2.43;;
26686;SDS011;14298;50.900;4.648;2023-08-17T09:38:50;2.57;;;2.37;;
26686;SDS011;14298;50.900;4.648;2023-08-17T09:41:18;1.80;;;1.70;;
26686;SDS011;14298;50.900;4.648;2023-08-17T09:43:47;2.83;;;2.53;;
26686;SDS011;14298;50.900;4.648;2023-08-17T09:46:15;3.83;;;3.33;;
26686;SDS011;14298;50.900;4.648;2023-08-17T09:48:43;9.03;;;3.47;;
26686;SDS011;14298;50.900;4.648;2023-08-17T09:51:17;3.37;;;2.97;;
26686;SDS011;14298;50.900;4.648;2023-08-17T09:53:42;2.90;;;2.70;;
26686;SDS011;14298;50.900;4.648;2023-08-17T09:56:10;3.53;;;2.50;;
26686;SDS011;14298;50.900;4.648;2023-08-17T09:58:40;3.40;;;3.10;;
26686;SDS011;14298;50.900;4.648;2023-08-17T10:01:08;6.00;;;3.90;;
26686;SDS011;14298;50.900;4.648;2023-08-17T10:03:37;3.90;;;2.73;;
26686;SDS011;14298;50.900;4.648;2023-08-17T10:06:09;5.30;;;2.73;;
26686;SDS011;14298;50.900;4.648;2023-08-17T10:08:39;7.50;;;2.03;;
26686;SDS011;14298;50.900;4.648;2023-08-17T10:11:06;1.60;;;1.50;;
26686;SDS011;14298;50.900;4.648;2023-08-17T10:13:42;3.20;;;1.87;;
26686;SDS011;14298;50.900;4.648;2023-08-17T10:16:14;2.33;;;1.97;;
26686;SDS011;14298;50.900;4.648;2023-08-17T10:18:53;3.03;;;2.60;;
26686;SDS011;14298;50.900;4.648;2023-08-17T10:21:28;6.20;;;1.83;;
26686;SDS011;14298;50.900;4.648;2023-08-17T10:24:11;3.07;;;2.70;;
26686;SDS011;14298;50.900;4.648;2023-08-17T10:26:40;6.77;;;3.03;;
26686;SDS011;14298;50.900;4.648;2023-08-17T10:29:08;2.87;;;2.63;;
26686;SDS011;14298;50.900;4.648;2023-08-17T10:31:37;2.70;;;2.50;;
26686;SDS011;14298;50.900;4.648;2023-08-17T10:34:05;4.43;;;2.77;;
26686;SDS011;14298;50.900;4.648;2023-08-17T10:36:33;2.30;;;2.10;;
26686;SDS011;14298;50.900;4.648;2023-08-17T10:39:17;5.47;;;2.67;;
26686;SDS011;14298;50.900;4.648;2023-08-17T10:41:51;2.97;;;2.63;;
26686;SDS011;14298;50.900;4.648;2023-08-17T10:47:17;4.50;;;2.43;;
26686;SDS011;14298;50.900;4.648;2023-08-17T10:49:31;2.67;;;2.47;;
26686;SDS011;14298;50.900;4.648;2023-08-17T10:51:59;3.23;;;2.90;;
26686;SDS011;14298;50.900;4.648;2023-08-17T10:54:35;15.10;;;3.23;;
26686;SDS011;14298;50.900;4.648;2023-08-17T10:56:57;4.27;;;3.07;;
26686;SDS011;14298;50.900;4.648;2023-08-17T10:59:25;6.40;;;3.07;;
26686;SDS011;14298;50.900;4.648;2023-08-17T11:01:53;3.20;;;2.67;;
26686;SDS011;14298;50.900;4.648;2023-08-17T11:04:21;2.70;;;2.50;;
26686;SDS011;14298;50.900;4.648;2023-08-17T11:07:00;3.20;;;2.90;;
26686;SDS011;14298;50.900;4.648;2023-08-17T11:09:21;3.67;;;3.33;;
26686;SDS011;14298;50.900;4.648;2023-08-17T11:11:52;6.77;;;3.57;;
26686;SDS011;14298;50.900;4.648;2023-08-17T11:14:18;4.50;;;3.50;;
26686;SDS011;14298;50.900;4.648;2023-08-17T11:16:49;4.30;;;2.93;;
26686;SDS011;14298;50.900;4.648;2023-08-17T11:19:17;10.33;;;3.73;;
26686;SDS011;14298;50.900;4.648;2023-08-17T11:21:46;5.47;;;3.53;;
26686;SDS011;14298;50.900;4.648;2023-08-17T11:24:14;3.83;;;3.17;;
26686;SDS011;14298;50.900;4.648;2023-08-17T11:26:42;4.27;;;2.90;;
26686;SDS011;14298;50.900;4.648;2023-08-17T11:29:10;6.03;;;3.40;;
26686;SDS011;14298;50.900;4.648;2023-08-17T11:31:39;11.03;;;3.27;;
26686;SDS011;14298;50.900;4.648;2023-08-17T11:34:07;3.67;;;3.17;;
26686;SDS011;14298;50.900;4.648;2023-08-17T11:36:35;5.63;;;3.90;;
26686;SDS011;14298;50.900;4.648;2023-08-17T11:39:04;4.87;;;3.90;;
26686;SDS011;14298;50.900;4.648;2023-08-17T11:41:34;10.17;;;4.60;;
26686;SDS011;14298;50.900;4.648;2023-08-17T11:44:02;4.57;;;3.83;;
26686;SDS011;14298;50.900;4.648;2023-08-17T11:46:32;7.13;;;4.33;;
26686;SDS011;14298;50.900;4.648;2023-08-17T11:49:00;5.83;;;4.40;;
26686;SDS011;14298;50.900;4.648;2023-08-17T11:51:28;4.43;;;4.03;;
26686;SDS011;14298;50.900;4.648;2023-08-17T11:54:00;6.50;;;4.50;;
26686;SDS011;14298;50.900;4.648;2023-08-17T11:56:30;4.13;;;3.73;;
26686;SDS011;14298;50.900;4.648;2023-08-17T11:58:58;11.40;;;4.40;;
26686;SDS011;14298;50.900;4.648;2023-08-17T12:01:25;11.23;;;4.80;;
26686;SDS011;14298;50.900;4.648;2023-08-17T12:03:53;6.30;;;3.83;;
26686;SDS011;14298;50.900;4.648;2023-08-17T12:06:21;5.00;;;3.57;;
26686;SDS011;14298;50.900;4.648;2023-08-17T12:08:49;6.43;;;4.77;;
26686;SDS011;14298;50.900;4.648;2023-08-17T12:11:18;5.33;;;4.60;;
26686;SDS011;14298;50.900;4.648;2023-08-17T12:13:49;5.03;;;4.00;;
26686;SDS011;14298;50.900;4.648;2023-08-17T12:16:19;7.50;;;3.33;;
26686;SDS011;14298;50.900;4.648;2023-08-17T12:18:54;3.60;;;3.17;;
26686;SDS011;14298;50.900;4.648;2023-08-17T12:21:22;4.70;;;3.13;;
26686;SDS011;14298;50.900;4.648;2023-08-17T12:23:50;3.60;;;2.73;;
26686;SDS011;14298;50.900;4.648;2023-08-17T12:26:19;5.30;;;4.00;;
26686;SDS011;14298;50.900;4.648;2023-08-17T12:28:48;4.40;;;3.50;;
26686;SDS011;14298;50.900;4.648;2023-08-17T12:31:20;9.00;;;5.33;;
26686;SDS011;14298;50.900;4.648;2023-08-17T12:33:46;5.20;;;3.57;;
26686;SDS011;14298;50.900;4.648;2023-08-17T12:36:14;7.10;;;4.43;;
26686;SDS011;14298;50.900;4.648;2023-08-17T12:38:42;8.47;;;4.57;;
26686;SDS011;14298;50.900;4.648;2023-08-17T12:41:12;4.33;;;3.60;;
26686;SDS011;14298;50.900;4.648;2023-08-17T12:43:39;6.23;;;3.57;;
26686;SDS011;14298;50.900;4.648;2023-08-17T12:46:12;8.60;;;4.50;;
26686;SDS011;14298;50.900;4.648;2023-08-17T12:48:38;4.77;;;4.10;;
26686;SDS011;14298;50.900;4.648;2023-08-17T12:51:06;5.97;;;4.23;;
26686;SDS011;14298;50.900;4.648;2023-08-17T12:53:34;5.87;;;5.13;;
26686;SDS011;14298;50.900;4.648;2023-08-17T12:56:02;4.93;;;3.93;;
26686;SDS011;14298;50.900;4.648;2023-08-17T12:58:30;6.70;;;4.30;;
26686;SDS011;14298;50.900;4.648;2023-08-17T13:00:58;5.30;;;4.53;;
26686;SDS011;14298;50.900;4.648;2023-08-17T13:03:26;7.03;;;4.07;;
26686;SDS011;14298;50.900;4.648;2023-08-17T13:05:54;5.33;;;3.63;;
26686;SDS011;14298;50.900;4.648;2023-08-17T13:08:22;12.03;;;5.17;;
26686;SDS011;14298;50.900;4.648;2023-08-17T13:10:50;7.97;;;5.17;;
26686;SDS011;14298;50.900;4.648;2023-08-17T13:13:18;4.30;;;3.77;;
26686;SDS011;14298;50.900;4.648;2023-08-17T13:15:46;6.63;;;5.30;;
26686;SDS011;14298;50.900;4.648;2023-08-17T13:18:14;7.57;;;5.17;;
26686;SDS011;14298;50.900;4.648;2023-08-17T13:20:42;7.63;;;5.17;;
26686;SDS011;14298;50.900;4.648;2023-08-17T13:23:10;5.50;;;5.00;;
26686;SDS011;14298;50.900;4.648;2023-08-17T13:25:38;6.57;;;5.73;;
26686;SDS011;14298;50.900;4.648;2023-08-17T13:28:06;6.00;;;4.93;;
26686;SDS011;14298;50.900;4.648;2023-08-17T13:30:34;6.10;;;5.40;;
26686;SDS011;14298;50.900;4.648;2023-08-17T13:33:03;7.97;;;5.43;;
26686;SDS011;14298;50.900;4.648;2023-08-17T13:35:33;6.43;;;4.63;;
26686;SDS011;14298;50.900;4.648;2023-08-17T13:38:01;7.93;;;6.03;;
26686;SDS011;14298;50.900;4.648;2023-08-17T13:40:30;8.23;;;5.30;;
26686;SDS011;14298;50.900;4.648;2023-08-17T13:42:59;12.03;;;6.03;;
26686;SDS011;14298;50.900;4.648;2023-08-17T13:45:27;5.40;;;4.80;;
26686;SDS011;14298;50.900;4.648;2023-08-17T13:47:55;6.60;;;4.60;;
26686;SDS011;14298;50.900;4.648;2023-08-17T13:50:23;4.57;;;4.17;;
26686;SDS011;14298;50.900;4.648;2023-08-17T13:52:51;6.10;;;4.37;;
26686;SDS011;14298;50.900;4.648;2023-08-17T13:55:19;5.60;;;4.90;;
26686;SDS011;14298;50.900;4.648;2023-08-17T13:57:47;7.87;;;5.67;;
26686;SDS011;14298;50.900;4.648;2023-08-17T14:00:15;6.83;;;4.70;;
26686;SDS011;14298;50.900;4.648;2023-08-17T14:02:43;7.07;;;3.93;;
26686;SDS011;14298;50.900;4.648;2023-08-17T14:05:11;8.70;;;4.40;;
26686;SDS011;14298;50.900;4.648;2023-08-17T14:07:39;6.27;;;3.80;;
26686;SDS011;14298;50.900;4.648;2023-08-17T14:10:07;4.57;;;3.83;;
26686;SDS011;14298;50.900;4.648;2023-08-17T14:12:35;4.97;;;3.73;;
26686;SDS011;14298;50.900;4.648;2023-08-17T14:15:04;5.43;;;3.50;;
26686;SDS011;14298;50.900;4.648;2023-08-17T14:17:32;4.57;;;3.87;;
26686;SDS011;14298;50.900;4.648;2023-08-17T14:20:00;6.80;;;3.70;;
26686;SDS011;14298;50.900;4.648;2023-08-17T14:22:28;4.40;;;3.90;;
26686;SDS011;14298;50.900;4.648;2023-08-17T14:24:56;5.30;;;4.17;;
26686;SDS011;14298;50.900;4.648;2023-08-17T14:27:24;3.93;;;3.40;;
26686;SDS011;14298;50.900;4.648;2023-08-17T14:32:39;3.60;;;3.13;;
26686;SDS011;14298;50.900;4.648;2023-08-17T14:35:07;7.20;;;4.13;;
26686;SDS011;14298;50.900;4.648;2023-08-17T14:37:35;6.93;;;4.63;;
26686;SDS011;14298;50.900;4.648;2023-08-17T14:40:03;5.23;;;4.03;;
26686;SDS011;14298;50.900;4.648;2023-08-17T14:42:31;3.77;;;3.37;;
26686;SDS011;14298;50.900;4.648;2023-08-17T14:44:59;4.83;;;4.27;;
26686;SDS011;14298;50.900;4.648;2023-08-17T14:47:27;5.37;;;3.63;;
26686;SDS011;14298;50.900;4.648;2023-08-17T14:49:55;5.57;;;3.43;;
26686;SDS011;14298;50.900;4.648;2023-08-17T14:52:23;5.47;;;4.43;;
26686;SDS011;14298;50.900;4.648;2023-08-17T14:54:52;4.30;;;3.30;;
26686;SDS011;14298;50.900;4.648;2023-08-17T14:57:21;9.33;;;4.37;;
26686;SDS011;14298;50.900;4.648;2023-08-17T14:59:49;4.43;;;3.83;;
26686;SDS011;14298;50.900;4.648;2023-08-17T15:02:17;4.63;;;4.17;;
26686;SDS011;14298;50.900;4.648;2023-08-17T15:04:45;6.00;;;4.13;;
26686;SDS011;14298;50.900;4.648;2023-08-17T15:07:13;4.20;;;3.23;;
26686;SDS011;14298;50.900;4.648;2023-08-17T15:09:41;5.97;;;3.87;;
26686;SDS011;14298;50.900;4.648;2023-08-17T15:12:09;3.93;;;3.53;;
26686;SDS011;14298;50.900;4.648;2023-08-17T15:14:37;6.13;;;4.97;;
26686;SDS011;14298;50.900;4.648;2023-08-17T15:17:05;4.37;;;3.97;;
26686;SDS011;14298;50.900;4.648;2023-08-17T15:19:35;9.80;;;5.77;;